Aviation Digital Data Service (ADDS)

Output produced by METARs form (0509 UTC 21 September 2017)
found at http://www.aviationweather.gov/adds/metars/
 
TAF TXKF 202331Z 2100/2124 23008KT 9999 FEW020 SCT065 BKN300